Sunset Harbor, North Carolina
Current Conditions -  °F | °C
As of 3:15 AM on Saturday 25 Oct 2014 (Local Time) from KSUT Reporting Station
Clear Clear  
Wind Chill: 52°   Ceiling: Unl
Heat Index: 52°   Visibility: 10mi
Dew Point: 48°   Wind: 0mph
Humidity: 86%   Direction: NA
Pressure: 29.98"   Gusts: NA
Location:  34.0134°N, 78.1689°W
Report Text: KSUT 250715Z AUTO 00000KT 10SM CLR 11/09 A2998 RMK AO2 T01120090
Loading
Personal Weather Stations






























Interactive Weather Map
Tropical Storm Tracking
New forecast layout! Learn more

10-Day Weather Forecast

Advertisements
Track Severe Weather on mobile